Time;durP1;ratioP1;P1;durP2;ratioP2;P2;SDS_P1;SDS_P2;PMS_P1;PMS_P2;Temp;Humidity;BMP_temperature;BMP_pressure;BME280_temperature;BME280_humidity;BME280_pressure;Samples;Min_cycle;Max_cycle;Signal;HPM_P1;HPM_P2
2021/01/01 00:00:45;;;;;;;53.20;28.48;;;3.50;99.90;;;;;;5083310;28;20020;-52
2021/01/01 00:03:11;;;;;;;51.50;26.63;;;3.50;99.90;;;;;;5082315;28;20038;-57
2021/01/01 00:05:37;;;;;;;57.28;30.60;;;3.40;99.90;;;;;;5082900;28;20028;-54
2021/01/01 00:08:03;;;;;;;53.78;30.23;;;3.40;99.90;;;;;;5083857;28;20023;-54
2021/01/01 00:10:30;;;;;;;61.05;32.88;;;3.40;99.90;;;;;;5082152;28;20388;-53
2021/01/01 00:12:56;;;;;;;59.45;30.80;;;3.40;99.90;;;;;;5083216;28;20420;-58
2021/01/01 00:15:22;;;;;;;55.97;30.52;;;3.30;99.90;;;;;;5081629;28;20048;-54
2021/01/01 00:17:47;;;;;;;63.28;35.35;;;3.30;99.90;;;;;;5081910;28;20047;-56
2021/01/01 00:20:13;;;;;;;67.07;36.28;;;3.30;99.90;;;;;;5082086;28;20360;-57
2021/01/01 00:22:41;;;;;;;68.50;38.30;;;3.30;99.90;;;;;;5081889;28;20031;-54
2021/01/01 00:25:08;;;;;;;66.00;35.78;;;3.30;99.90;;;;;;5091019;28;20398;-55
2021/01/01 00:27:34;;;;;;;67.68;38.60;;;3.30;99.90;;;;;;5093621;28;20028;-58
2021/01/01 00:30:00;;;;;;;67.53;38.75;;;3.40;99.90;;;;;;5092786;28;20042;-57
2021/01/01 00:32:26;;;;;;;78.78;40.78;;;3.30;99.90;;;;;;5093183;28;20017;-56
2021/01/01 00:34:52;;;;;;;69.60;35.72;;;3.40;99.90;;;;;;5091584;28;20077;-49
2021/01/01 00:37:18;;;;;;;65.70;37.10;;;3.30;99.90;;;;;;5091153;28;20135;-54
2021/01/01 00:39:55;;;;;;;59.60;32.65;;;3.30;99.90;;;;;;4797974;28;10000788;-53
2021/01/01 00:42:21;;;;;;;63.50;33.33;;;3.50;99.90;;;;;;5089807;28;20245;-56
2021/01/01 00:44:46;;;;;;;61.90;34.03;;;3.40;99.90;;;;;;5090620;28;20030;-53
2021/01/01 00:47:12;;;;;;;53.90;29.15;;;3.40;99.90;;;;;;5102100;23;20115;-64
2021/01/01 00:49:38;;;;;;;58.78;30.48;;;3.40;99.90;;;;;;5051008;28;20021;-63
2021/01/01 00:52:04;;;;;;;53.78;28.25;;;3.40;99.90;;;;;;5051769;28;20029;-64
2021/01/01 00:54:31;;;;;;;49.67;25.25;;;3.30;99.90;;;;;;5051466;28;20025;-63
2021/01/01 00:56:57;;;;;;;44.55;24.88;;;3.30;99.90;;;;;;5051841;28;20521;-63
2021/01/01 00:59:23;;;;;;;45.92;25.88;;;3.30;99.90;;;;;;5050798;28;20021;-64
2021/01/01 01:01:48;;;;;;;51.20;25.35;;;3.20;99.90;;;;;;5051153;28;20025;-63
2021/01/01 01:04:14;;;;;;;48.45;26.00;;;3.20;99.90;;;;;;5033130;28;20039;-61
2021/01/01 01:06:39;;;;;;;49.00;24.10;;;3.20;99.90;;;;;;5033048;28;20582;-62
2021/01/01 01:09:05;;;;;;;49.05;26.08;;;3.30;99.90;;;;;;5050087;28;20033;-63
2021/01/01 01:11:31;;;;;;;51.60;24.42;;;3.20;99.90;;;;;;5050478;28;20483;-63
2021/01/01 01:13:58;;;;;;;52.83;26.27;;;3.20;99.90;;;;;;5050940;28;20637;-62
2021/01/01 01:16:26;;;;;;;55.20;27.48;;;3.20;99.90;;;;;;5050833;28;20033;-62
2021/01/01 01:18:52;;;;;;;52.63;27.80;;;3.20;99.90;;;;;;5048901;28;20116;-62
2021/01/01 01:21:18;;;;;;;53.72;28.42;;;3.10;99.90;;;;;;5032971;28;20472;-63
2021/01/01 01:23:47;;;;;;;51.35;26.95;;;3.10;99.90;;;;;;5050923;28;20032;-63
2021/01/01 01:26:13;;;;;;;49.70;25.55;;;3.10;99.90;;;;;;5033146;28;20118;-61
2021/01/01 01:28:39;;;;;;;53.97;27.98;;;3.00;99.90;;;;;;5050297;28;20033;-62
2021/01/01 01:31:05;;;;;;;55.08;28.55;;;2.90;99.90;;;;;;5051140;28;20464;-61
2021/01/01 01:33:31;;;;;;;54.13;29.08;;;2.80;99.90;;;;;;5050888;28;20029;-60
2021/01/01 01:35:58;;;;;;;56.28;29.33;;;2.60;99.90;;;;;;5050809;28;20017;-61
2021/01/01 01:38:26;;;;;;;56.55;26.98;;;2.50;99.90;;;;;;5050061;28;20077;-61
2021/01/01 01:40:54;;;;;;;58.53;29.90;;;2.50;99.90;;;;;;5050589;28;20108;-61
2021/01/01 01:43:25;;;;;;;;;;;2.40;99.90;;;;;;5051061;28;20508;-60
2021/01/01 01:45:53;;;;;;;56.45;30.42;;;2.30;99.90;;;;;;5032364;28;20343;-61
2021/01/01 01:48:34;;;;;;;59.15;31.70;;;2.30;99.90;;;;;;5049523;28;20037;-61
2021/01/01 01:51:03;;;;;;;54.47;27.73;;;2.30;99.90;;;;;;5049901;28;20513;-63
2021/01/01 01:53:50;;;;;;;57.35;31.00;;;2.20;99.90;;;;;;5049052;28;20336;-59
2021/01/01 01:56:18;;;;;;;57.13;30.08;;;2.10;99.90;;;;;;5050440;28;20560;-63
2021/01/01 01:58:47;;;;;;;62.60;32.10;;;2.00;99.90;;;;;;5049708;28;20036;-62
2021/01/01 02:01:32;;;;;;;58.67;31.02;;;1.90;99.90;;;;;;5048721;28;20413;-61
2021/01/01 02:03:58;;;;;;;62.85;30.50;;;1.90;99.90;;;;;;5049476;28;20036;-62
2021/01/01 02:06:24;;;;;;;55.47;29.00;;;1.80;99.90;;;;;;5032237;28;20025;-63
2021/01/01 02:08:57;;;;;;;61.83;29.70;;;1.80;99.90;;;;;;5049474;28;20029;-58
2021/01/01 02:11:25;;;;;;;66.95;30.23;;;1.80;99.90;;;;;;5048959;28;20033;-62
2021/01/01 02:13:53;;;;;;;59.42;34.30;;;1.80;99.90;;;;;;5050071;28;20032;-59
2021/01/01 02:16:23;;;;;;;63.85;34.47;;;1.70;99.90;;;;;;5048233;28;20420;-64
2021/01/01 02:18:49;;;;;;;63.65;33.47;;;1.80;99.90;;;;;;5047860;28;20029;-62
2021/01/01 02:21:19;;;;;;;63.45;33.25;;;1.80;99.90;;;;;;5049799;28;20025;-61
2021/01/01 02:23:49;;;;;;;60.78;32.28;;;1.80;99.90;;;;;;5050066;28;20028;-60
2021/01/01 02:26:15;;;;;;;67.88;32.88;;;1.70;99.90;;;;;;5049868;28;20025;-57
2021/01/01 02:28:41;;;;;;;62.30;32.70;;;1.70;99.90;;;;;;5031304;28;20415;-62
2021/01/01 02:31:07;;;;;;;66.15;34.47;;;1.60;99.90;;;;;;5050004;28;20094;-59
2021/01/01 02:33:33;;;;;;;61.55;33.60;;;1.60;99.90;;;;;;5048889;28;20468;-61
2021/01/01 02:35:58;;;;;;;72.95;34.15;;;1.60;99.90;;;;;;5049771;28;20025;-61
2021/01/01 02:38:24;;;;;;;67.25;33.45;;;1.60;99.90;;;;;;5049297;28;20021;-61
2021/01/01 02:40:50;;;;;;;71.53;38.10;;;1.60;99.90;;;;;;5049811;28;20075;-60
2021/01/01 02:43:15;;;;;;;76.38;37.00;;;1.60;99.90;;;;;;5050063;28;20086;-61
2021/01/01 02:45:41;;;;;;;86.88;40.83;;;1.60;99.90;;;;;;5048552;28;20389;-62
2021/01/01 02:48:09;;;;;;;85.97;40.88;;;1.60;99.90;;;;;;5049026;28;20036;-63
2021/01/01 02:50:35;;;;;;;88.85;38.42;;;1.70;99.90;;;;;;5031621;28;20104;-62
2021/01/01 02:53:03;;;;;;;72.13;37.90;;;1.60;99.90;;;;;;5049520;28;20059;-62
2021/01/01 02:55:30;;;;;;;75.75;41.05;;;1.60;99.90;;;;;;5031815;28;20063;-59
2021/01/01 02:57:56;;;;;;;80.57;39.20;;;1.50;99.90;;;;;;5049309;28;20029;-62
2021/01/01 03:00:21;;;;;;;73.63;39.60;;;1.40;99.90;;;;;;5031240;28;20392;-62
2021/01/01 03:02:47;;;;;;;78.68;40.55;;;1.30;99.90;;;;;;5049580;28;20029;-62
2021/01/01 03:05:14;;;;;;;75.97;38.17;;;1.30;99.90;;;;;;5053257;28;20025;-63
2021/01/01 03:07:39;;;;;;;83.72;41.13;;;1.30;99.90;;;;;;5034975;28;20393;-62
2021/01/01 03:10:06;;;;;;;91.75;41.95;;;1.30;99.90;;;;;;5052802;28;20082;-61
2021/01/01 03:12:31;;;;;;;75.28;38.00;;;1.30;99.90;;;;;;5035223;28;20032;-61
2021/01/01 03:14:57;;;;;;;88.30;42.45;;;1.20;99.90;;;;;;5051843;28;20025;-63
2021/01/01 03:17:22;;;;;;;84.05;40.30;;;1.10;99.90;;;;;;5053259;28;20034;-59
2021/01/01 03:19:48;;;;;;;78.38;40.83;;;1.10;99.90;;;;;;5052569;28;20031;-61
2021/01/01 03:22:13;;;;;;;81.20;41.05;;;1.10;99.90;;;;;;5053013;28;20101;-62
2021/01/01 03:24:39;;;;;;;81.60;39.10;;;1.00;99.90;;;;;;5052936;28;20036;-61
2021/01/01 03:27:04;;;;;;;73.50;38.92;;;1.00;99.90;;;;;;5052743;28;20029;-63
2021/01/01 03:29:30;;;;;;;72.45;38.65;;;0.90;99.90;;;;;;5052264;28;20021;-62
2021/01/01 03:31:56;;;;;;;78.90;38.22;;;1.00;99.90;;;;;;5051622;28;20017;-62
2021/01/01 03:34:21;;;;;;;80.32;39.60;;;1.00;99.90;;;;;;5035251;28;20021;-61
2021/01/01 03:36:50;;;;;;;76.50;36.83;;;0.90;99.90;;;;;;5052895;28;20028;-60
2021/01/01 03:39:16;;;;;;;83.30;38.33;;;1.00;99.90;;;;;;5052170;28;20024;-60
2021/01/01 03:41:42;;;;;;;83.72;41.40;;;1.00;99.90;;;;;;5052697;28;20041;-63
2021/01/01 03:44:07;;;;;;;79.25;39.10;;;1.00;99.90;;;;;;5034702;28;20061;-62
2021/01/01 03:46:33;;;;;;;80.13;39.17;;;1.10;99.90;;;;;;5052497;28;20027;-63
2021/01/01 03:48:58;;;;;;;77.25;35.60;;;1.10;99.90;;;;;;5051646;28;20457;-61
2021/01/01 03:51:24;;;;;;;73.63;35.25;;;1.00;99.90;;;;;;5051471;28;20032;-62
2021/01/01 03:53:50;;;;;;;76.72;37.05;;;0.90;99.90;;;;;;5051342;28;20025;-63
2021/01/01 03:56:16;;;;;;;82.18;35.72;;;0.90;99.90;;;;;;5052256;28;20033;-61
2021/01/01 03:58:42;;;;;;;73.40;34.33;;;0.90;99.90;;;;;;5033839;28;20044;-61
2021/01/01 04:01:08;;;;;;;68.47;33.58;;;0.80;99.90;;;;;;5052097;28;20029;-60
2021/01/01 04:03:34;;;;;;;69.10;33.92;;;0.80;99.90;;;;;;5052247;28;20147;-61
2021/01/01 04:06:01;;;;;;;70.93;32.35;;;0.80;99.90;;;;;;5050783;28;20136;-59
2021/01/01 04:08:26;;;;;;;65.57;34.90;;;0.80;99.90;;;;;;5051150;28;20598;-58
2021/01/01 04:10:52;;;;;;;74.68;36.25;;;0.80;99.90;;;;;;5052105;28;20105;-60
2021/01/01 04:13:18;;;;;;;78.70;34.88;;;0.80;99.90;;;;;;5033466;28;20476;-63
2021/01/01 04:15:44;;;;;;;77.18;33.95;;;0.90;99.90;;;;;;5033944;28;20055;-62
2021/01/01 04:18:10;;;;;;;68.43;33.17;;;0.80;99.90;;;;;;5051525;28;20021;-62
2021/01/01 04:20:36;;;;;;;73.25;32.70;;;0.90;99.90;;;;;;5051581;28;20382;-63
2021/01/01 04:23:01;;;;;;;70.45;34.25;;;0.80;99.90;;;;;;5052183;28;20103;-59
2021/01/01 04:25:27;;;;;;;70.00;31.58;;;0.80;99.90;;;;;;5051524;28;20044;-63
2021/01/01 04:27:53;;;;;;;60.45;29.02;;;0.80;99.90;;;;;;5051327;28;20032;-62
2021/01/01 04:30:21;;;;;;;63.90;29.98;;;0.80;99.90;;;;;;5051642;28;20067;-62
2021/01/01 04:32:46;;;;;;;58.47;29.67;;;0.80;99.90;;;;;;5034481;28;20035;-62
2021/01/01 04:35:13;;;;;;;55.58;27.50;;;0.80;99.90;;;;;;5034134;28;20017;-62
2021/01/01 04:37:39;;;;;;;65.30;29.50;;;0.70;99.90;;;;;;5033660;28;20036;-61
2021/01/01 04:40:05;;;;;;;66.65;32.83;;;0.60;99.90;;;;;;5051336;28;20028;-60
2021/01/01 04:42:31;;;;;;;64.38;29.55;;;0.70;99.90;;;;;;5051573;28;20029;-61
2021/01/01 04:45:00;;;;;;;64.40;32.28;;;0.70;99.90;;;;;;5051677;28;20087;-62
2021/01/01 04:47:27;;;;;;;59.75;28.98;;;0.80;99.90;;;;;;5051394;28;20100;-59
2021/01/01 04:49:53;;;;;;;61.20;30.45;;;1.00;99.90;;;;;;5049520;28;20025;-62
2021/01/01 04:52:19;;;;;;;60.22;32.03;;;1.00;99.90;;;;;;5050480;28;20502;-63
2021/01/01 04:54:48;;;;;;;64.75;32.72;;;1.10;99.90;;;;;;5051488;28;20025;-60
2021/01/01 04:57:13;;;;;;;58.95;29.05;;;1.10;99.90;;;;;;5049938;28;20029;-60
2021/01/01 04:59:39;;;;;;;66.65;34.00;;;1.00;99.90;;;;;;5050229;28;20032;-57
2021/01/01 05:02:06;;;;;;;60.92;29.00;;;0.90;99.90;;;;;;5050682;28;20025;-62
2021/01/01 05:04:31;;;;;;;67.93;32.40;;;0.90;99.90;;;;;;5050946;28;20108;-60
2021/01/01 05:07:00;;;;;;;67.28;34.38;;;0.80;99.90;;;;;;5050557;28;20100;-60
2021/01/01 05:09:26;;;;;;;61.08;31.35;;;0.80;99.90;;;;;;5050212;28;20021;-58
2021/01/01 05:12:06;;;;;;;69.88;33.88;;;0.90;99.90;;;;;;5032506;28;20745;-60
2021/01/01 05:14:32;;;;;;;64.40;31.50;;;1.00;99.90;;;;;;5051003;28;20021;-62
2021/01/01 05:16:58;;;;;;;61.28;32.97;;;0.90;99.90;;;;;;5049473;28;20032;-63
2021/01/01 05:19:37;;;;;;;60.42;29.35;;;0.80;99.90;;;;;;5032252;28;20118;-62
2021/01/01 05:22:05;;;;;;;66.13;32.67;;;0.60;99.90;;;;;;5049337;28;20044;-63
2021/01/01 05:24:41;;;;;;;66.33;34.10;;;0.60;99.90;;;;;;5050294;28;20021;-62
2021/01/01 05:27:13;;;;;;;62.55;29.58;;;0.70;99.90;;;;;;5050277;28;20366;-62
2021/01/01 05:29:57;;;;;;;60.75;30.92;;;0.50;99.90;;;;;;5049964;28;20108;-61
2021/01/01 05:32:25;;;;;;;58.15;28.92;;;0.50;99.90;;;;;;5050544;28;20028;-59
2021/01/01 05:34:52;;;;;;;68.78;30.73;;;0.50;99.90;;;;;;5050520;28;20025;-61
2021/01/01 05:37:31;;;;;;;63.83;29.85;;;0.50;99.90;;;;;;5050371;28;20120;-63
2021/01/01 05:40:08;;;;;;;59.03;31.75;;;0.40;99.90;;;;;;5049607;28;20112;-63
2021/01/01 05:42:42;;;;;;;58.22;28.65;;;0.40;99.90;;;;;;5050581;28;20021;-63
2021/01/01 05:45:19;;;;;;;61.50;29.52;;;0.30;99.90;;;;;;5050214;28;20483;-60
2021/01/01 05:48:06;;;;;;;67.45;31.48;;;0.20;99.90;;;;;;5031683;28;20037;-60
2021/01/01 05:50:35;;;;;;;65.32;30.83;;;0.20;99.90;;;;;;5049805;28;20140;-62
2021/01/01 05:53:18;;;;;;;68.78;30.58;;;0.30;99.90;;;;;;5032465;28;20029;-61
2021/01/01 05:55:50;;;;;;;68.25;31.70;;;0.30;99.90;;;;;;5032175;28;20060;-61
2021/01/01 05:58:34;;;;;;;64.43;32.53;;;0.40;99.90;;;;;;5047802;28;20033;-62
2021/01/01 06:01:02;;;;;;;73.30;34.33;;;0.50;99.90;;;;;;5032093;28;20044;-61
2021/01/01 06:03:33;;;;;;;69.35;32.47;;;0.70;99.90;;;;;;5048848;28;20032;-61
2021/01/01 06:05:59;;;;;;;78.90;35.88;;;0.70;99.90;;;;;;5049896;28;20174;-62
2021/01/01 06:08:27;;;;;;;71.80;32.80;;;0.70;99.90;;;;;;5049448;28;20086;-62
2021/01/01 06:11:04;;;;;;;79.40;35.17;;;0.70;99.90;;;;;;5031861;28;20583;-63
2021/01/01 06:13:32;;;;;;;75.20;34.58;;;0.80;99.90;;;;;;5050155;28;20134;-60
2021/01/01 06:16:04;;;;;;;70.43;32.67;;;1.00;99.90;;;;;;5049895;28;20487;-61
2021/01/01 06:18:33;;;;;;;69.60;35.05;;;1.00;99.90;;;;;;5049333;28;20041;-61
2021/01/01 06:20:59;;;;;;;67.25;32.17;;;1.00;99.90;;;;;;5049881;28;20519;-61
2021/01/01 06:23:36;;;;;;;75.88;33.22;;;1.00;99.90;;;;;;5032125;28;20056;-63
2021/01/01 06:26:07;;;;;;;73.68;32.63;;;0.90;99.90;;;;;;5049840;28;20036;-61
2021/01/01 06:28:36;;;;;;;61.88;31.65;;;0.90;99.90;;;;;;5048860;28;20044;-62
2021/01/01 06:31:04;;;;;;;76.78;34.35;;;0.80;99.90;;;;;;5032028;28;20025;-63
2021/01/01 06:33:31;;;;;;;71.15;35.03;;;0.80;99.90;;;;;;5050111;28;20021;-62
2021/01/01 06:35:56;;;;;;;82.47;39.20;;;0.80;99.90;;;;;;5031899;28;20136;-59
2021/01/01 06:38:39;;;;;;;70.03;35.42;;;0.90;99.90;;;;;;5035032;28;20124;-62
2021/01/01 06:41:14;;;;;;;76.82;35.15;;;0.90;99.90;;;;;;5054121;28;20108;-62
2021/01/01 06:43:54;;;;;;;78.82;35.22;;;0.90;99.90;;;;;;5035972;28;20108;-63
2021/01/01 06:46:32;;;;;;;80.63;34.97;;;0.90;99.90;;;;;;5035706;28;20122;-62
2021/01/01 06:48:58;;;;;;;76.55;35.40;;;0.90;99.90;;;;;;5078038;22;20049;-54
2021/01/01 06:51:27;;;;;;;82.63;36.40;;;0.90;99.90;;;;;;5054904;28;20439;-53
2021/01/01 06:53:53;;;;;;;69.47;32.70;;;0.90;99.90;;;;;;5036753;28;20123;-55
2021/01/01 06:56:22;;;;;;;101.75;37.65;;;0.80;99.90;;;;;;5054789;28;20557;-53
2021/01/01 06:59:06;;;;;;;134.48;39.22;;;0.80;99.90;;;;;;5036305;28;20116;-52
2021/01/01 07:01:40;;;;;;;80.90;32.15;;;0.80;99.90;;;;;;5036871;28;20024;-56
2021/01/01 07:04:12;;;;;;;111.85;39.67;;;0.80;99.90;;;;;;5052775;28;20033;-58
2021/01/01 07:06:40;;;;;;;101.97;33.38;;;0.80;99.90;;;;;;5054364;28;20056;-53
2021/01/01 07:09:10;;;;;;;104.10;34.50;;;0.80;99.90;;;;;;5053863;28;20073;-57
2021/01/01 07:11:39;;;;;;;109.15;40.72;;;0.70;99.90;;;;;;5036711;28;20025;-56
2021/01/01 07:14:10;;;;;;;98.72;33.10;;;0.80;99.90;;;;;;5054304;28;20155;-54
2021/01/01 07:17:05;;;;;;;115.70;40.35;;;0.70;99.90;;;;;;5054460;28;20048;-55
2021/01/01 07:19:31;;;;;;;107.13;36.88;;;0.70;99.90;;;;;;5053766;28;20047;-56
2021/01/01 07:21:59;;;;;;;95.55;37.83;;;0.80;99.90;;;;;;5054211;28;20096;-54
2021/01/01 07:27:44;;;;;;;90.28;38.90;;;0.70;99.90;;;;;;5040245;28;20108;-55
2021/01/01 07:30:40;;;;;;;95.80;39.67;;;0.80;99.90;;;;;;5053800;28;20366;-56
2021/01/01 07:33:49;;;;;;;;;;;;;;;;;;;;;
2021/01/01 07:36:51;;;;;;;104.97;40.60;;;0.80;99.90;;;;;;5054090;28;20013;-53
2021/01/01 07:40:12;;;;;;;113.93;42.63;;;0.80;99.90;;;;;;5012203;28;20037;-52
2021/01/01 07:43:10;;;;;;;;;;;;;;;;;;;;;
2021/01/01 07:49:54;;;;;;;90.60;39.70;;;0.80;99.90;;;;;;4948173;28;20107;-56
2021/01/01 07:57:24;;;;;;;;;;;;;;;;;;;;;
2021/01/01 07:59:49;;;;;;;200.68;54.05;;;1.00;99.90;;;;;;4976036;28;20031;-56
2021/01/01 08:12:58;;;;;;;;;;;;;;;;;;;;;
2021/01/01 08:16:32;;;;;;;;;;;;;;;;;;;;;
2021/01/01 08:19:08;;;;;;;133.60;46.42;;;1.00;99.90;;;;;;4909809;29;20044;-55
2021/01/01 08:21:38;;;;;;;143.87;47.47;;;0.90;99.90;;;;;;4914774;29;20074;-55
2021/01/01 08:24:10;;;;;;;128.15;45.63;;;1.00;99.90;;;;;;4993642;28;20123;-57
2021/01/01 08:26:39;;;;;;;243.95;65.05;;;1.00;99.90;;;;;;5053250;28;20024;-54
2021/01/01 08:29:08;;;;;;;150.23;48.22;;;1.00;99.90;;;;;;5052219;28;20020;-52
2021/01/01 08:31:36;;;;;;;123.07;50.42;;;1.00;99.90;;;;;;5054841;28;20441;-54
2021/01/01 08:34:02;;;;;;;140.65;51.65;;;1.00;99.90;;;;;;5072892;28;20479;-53
2021/01/01 08:36:33;;;;;;;106.47;47.35;;;1.00;99.90;;;;;;5054881;28;20025;-56
2021/01/01 08:39:14;;;;;;;249.63;62.03;;;1.00;99.90;;;;;;5072175;28;20039;-54
2021/01/01 08:41:45;;;;;;;185.93;53.47;;;1.00;99.90;;;;;;5054786;28;20032;-52
2021/01/01 08:44:12;;;;;;;131.80;48.65;;;1.10;99.90;;;;;;5054621;28;20028;-56
2021/01/01 08:46:38;;;;;;;101.25;46.25;;;1.10;99.90;;;;;;5054724;28;20396;-57
2021/01/01 08:49:20;;;;;;;102.40;45.70;;;1.10;99.90;;;;;;5071921;28;20454;-58
2021/01/01 08:51:47;;;;;;;107.65;45.40;;;1.10;99.90;;;;;;5055033;28;20017;-54
2021/01/01 08:54:23;;;;;;;111.18;44.53;;;1.20;99.90;;;;;;5054940;28;20074;-55
2021/01/01 08:56:57;;;;;;;111.57;46.47;;;1.20;99.90;;;;;;5054822;28;20032;-54
2021/01/01 08:59:24;;;;;;;95.45;41.35;;;1.30;99.90;;;;;;5071884;28;20062;-51
2021/01/01 09:01:51;;;;;;;92.70;42.75;;;1.30;99.90;;;;;;5072768;28;20028;-55
2021/01/01 09:04:18;;;;;;;87.78;41.47;;;1.30;99.90;;;;;;5072693;28;20377;-53
2021/01/01 09:07:14;;;;;;;91.82;40.92;;;1.40;99.90;;;;;;5072691;28;20020;-58
2021/01/01 09:09:40;;;;;;;104.15;40.75;;;1.40;99.90;;;;;;5050772;28;20670;-52
2021/01/01 09:12:14;;;;;;;102.22;43.45;;;1.30;99.90;;;;;;5072581;28;20033;-56
2021/01/01 09:14:52;;;;;;;117.53;40.25;;;1.40;99.90;;;;;;5072756;28;20028;-56
2021/01/01 09:17:19;;;;;;;115.40;40.75;;;1.30;99.90;;;;;;5072442;28;20023;-56
2021/01/01 09:19:45;;;;;;;104.82;37.13;;;1.30;99.90;;;;;;5071471;28;20050;-53
2021/01/01 09:22:20;;;;;;;92.90;36.85;;;1.20;99.90;;;;;;5072135;28;20678;-51
2021/01/01 09:24:47;;;;;;;99.57;38.53;;;1.20;99.90;;;;;;5072344;28;20024;-53
2021/01/01 09:27:13;;;;;;;96.93;37.75;;;1.10;99.90;;;;;;5054029;28;20031;-50
2021/01/01 09:29:39;;;;;;;101.95;39.78;;;1.10;99.90;;;;;;5053418;28;20052;-53
2021/01/01 09:32:10;;;;;;;104.78;39.97;;;1.10;99.90;;;;;;5050181;28;20447;-52
2021/01/01 09:34:35;;;;;;;94.47;39.33;;;1.10;99.90;;;;;;5034216;28;20545;-52
2021/01/01 09:37:09;;;;;;;93.20;38.17;;;1.10;99.90;;;;;;5033986;28;20053;-52
2021/01/01 09:39:34;;;;;;;130.88;38.40;;;1.20;99.90;;;;;;5051191;28;20099;-55
2021/01/01 09:42:00;;;;;;;83.80;37.88;;;1.20;99.90;;;;;;5033857;28;20052;-53
2021/01/01 09:44:26;;;;;;;131.48;47.35;;;1.20;99.90;;;;;;5033903;28;20393;-54
2021/01/01 09:46:52;;;;;;;126.68;42.00;;;1.20;99.90;;;;;;5051606;28;20476;-52
2021/01/01 09:49:18;;;;;;;104.00;42.95;;;1.30;99.90;;;;;;5047854;28;20036;-55
2021/01/01 09:51:45;;;;;;;106.07;44.53;;;1.30;99.90;;;;;;5043036;28;20398;-57
2021/01/01 09:54:10;;;;;;;91.93;40.90;;;1.50;99.90;;;;;;5068400;28;20023;-55
2021/01/01 09:56:37;;;;;;;87.00;39.05;;;1.50;99.90;;;;;;5053925;28;20107;-58
2021/01/01 09:59:04;;;;;;;79.55;37.03;;;1.60;99.90;;;;;;5052733;28;20546;-59
2021/01/01 10:01:31;;;;;;;86.20;35.13;;;1.70;99.90;;;;;;5071535;28;20053;-61
2021/01/01 10:04:01;;;;;;;117.90;36.40;;;1.70;99.90;;;;;;5053492;28;20024;-55
2021/01/01 10:06:27;;;;;;;95.72;39.88;;;1.70;99.90;;;;;;5071740;28;20475;-57
2021/01/01 10:08:52;;;;;;;94.97;37.78;;;1.60;99.90;;;;;;5070643;28;20035;-57
2021/01/01 10:11:19;;;;;;;87.43;37.28;;;1.70;99.90;;;;;;5071102;28;20120;-60
2021/01/01 10:13:44;;;;;;;89.32;36.35;;;1.60;99.90;;;;;;5071102;28;20031;-58
2021/01/01 10:16:11;;;;;;;89.65;39.22;;;1.80;99.90;;;;;;5053593;28;20025;-53
2021/01/01 10:18:39;;;;;;;91.45;37.70;;;1.70;99.90;;;;;;5052767;28;20390;-51
2021/01/01 10:21:07;;;;;;;91.82;37.45;;;1.70;99.90;;;;;;5071676;28;20051;-45
2021/01/01 10:23:32;;;;;;;84.20;35.33;;;1.70;99.90;;;;;;5071356;28;20050;-50
2021/01/01 10:25:58;;;;;;;105.28;38.58;;;1.80;99.90;;;;;;5068134;28;20111;-54
2021/01/01 10:28:24;;;;;;;94.60;37.67;;;1.90;99.90;;;;;;5042096;28;20051;-52
2021/01/01 10:30:49;;;;;;;124.10;40.75;;;2.00;99.90;;;;;;5041162;28;20052;-54
2021/01/01 10:33:15;;;;;;;76.78;34.95;;;2.00;99.90;;;;;;5053862;28;20031;-53
2021/01/01 10:35:41;;;;;;;72.85;33.28;;;2.10;99.90;;;;;;5051217;28;20057;-55
2021/01/01 10:38:06;;;;;;;66.72;34.58;;;2.20;99.90;;;;;;5061321;28;20033;-52
2021/01/01 10:40:32;;;;;;;68.00;35.78;;;2.20;99.90;;;;;;5059325;28;20128;-53
2021/01/01 10:42:58;;;;;;;72.15;37.05;;;2.20;99.90;;;;;;5052644;28;20029;-52
2021/01/01 10:45:24;;;;;;;63.78;34.40;;;2.00;99.90;;;;;;5064226;28;20032;-54
2021/01/01 10:47:51;;;;;;;65.95;32.70;;;2.30;99.90;;;;;;5070520;28;20610;-55
2021/01/01 10:50:19;;;;;;;60.50;33.10;;;2.50;99.90;;;;;;5052647;28;20472;-56
2021/01/01 10:52:45;;;;;;;;;;;2.80;99.90;;;;;;5071489;28;20031;-53
2021/01/01 10:55:15;;;;;;;60.85;32.30;;;2.90;99.90;;;;;;5053101;28;19908;-55
2021/01/01 10:58:03;;;;;;;60.00;30.25;;;3.30;99.90;;;;;;5052530;28;20634;-53
2021/01/01 11:01:01;;;;;;;58.75;32.53;;;3.50;99.90;;;;;;5030927;28;20493;-55
2021/01/01 11:03:40;;;;;;;54.92;29.23;;;3.90;99.90;;;;;;5048897;28;20067;-54
2021/01/01 11:06:32;;;;;;;;;;;;;;;;;;;;;
2021/01/01 11:09:16;;;;;;;57.00;29.75;;;4.40;99.90;;;;;;5048816;28;20028;-49
2021/01/01 11:11:42;;;;;;;51.67;26.88;;;4.80;99.90;;;;;;5032341;28;20221;-55
2021/01/01 11:14:15;;;;;;;52.03;29.52;;;4.80;99.90;;;;;;5050914;28;20032;-50
2021/01/01 12:23:04;;;;;;;61.20;33.95;;;3.50;99.90;;;;;;5073424;28;20054;-51
2021/01/01 12:25:30;;;;;;;57.15;31.48;;;3.70;99.90;;;;;;5073540;28;20031;-52
2021/01/01 12:27:58;;;;;;;60.03;29.55;;;3.60;99.90;;;;;;5054888;28;20551;-54
2021/01/01 12:30:25;;;;;;;60.60;31.02;;;3.70;99.90;;;;;;5048104;28;20025;-53
2021/01/01 12:32:52;;;;;;;56.78;29.88;;;3.80;99.90;;;;;;5035682;28;20056;-54
2021/01/01 12:35:19;;;;;;;58.15;29.98;;;3.80;99.90;;;;;;5034850;28;20021;-52
2021/01/01 12:37:46;;;;;;;57.97;31.02;;;3.90;99.90;;;;;;5052772;28;20025;-51
2021/01/01 12:40:12;;;;;;;57.15;30.55;;;3.90;99.90;;;;;;5034844;28;20040;-51
2021/01/01 12:42:38;;;;;;;56.78;30.73;;;3.90;99.90;;;;;;5052953;28;20029;-55
2021/01/01 12:45:05;;;;;;;54.78;29.85;;;3.90;99.90;;;;;;5034795;28;20070;-55
2021/01/01 12:50:06;;;;;;;56.60;31.70;;;3.90;99.90;;;;;;5071223;28;20094;-48
2021/01/01 12:52:32;;;;;;;56.45;30.48;;;3.90;99.90;;;;;;5072926;28;20020;-51
2021/01/01 12:55:05;;;;;;;56.50;31.95;;;3.90;99.90;;;;;;5071802;28;20024;-51
2021/01/01 12:57:30;;;;;;;64.38;34.90;;;4.00;99.90;;;;;;5072879;28;20025;-50
2021/01/01 12:59:57;;;;;;;57.60;32.40;;;3.90;99.90;;;;;;5072157;28;20032;-54
2021/01/01 13:02:23;;;;;;;60.53;32.90;;;4.10;99.90;;;;;;5071177;28;20166;-55
2021/01/01 13:04:48;;;;;;;68.10;35.03;;;4.20;99.90;;;;;;5072544;28;20051;-55
2021/01/01 13:07:17;;;;;;;56.75;32.78;;;4.30;99.90;;;;;;5072452;28;20109;-53
2021/01/01 13:09:42;;;;;;;65.32;36.70;;;4.20;99.90;;;;;;5070687;28;20020;-54
2021/01/01 13:12:08;;;;;;;60.10;33.47;;;4.10;99.90;;;;;;5071324;28;20029;-54
2021/01/01 13:14:34;;;;;;;61.53;33.50;;;4.00;99.90;;;;;;5072596;28;20024;-55
2021/01/01 13:17:03;;;;;;;65.18;34.47;;;4.10;99.90;;;;;;5072387;28;20396;-57
2021/01/01 13:19:28;;;;;;;;;;;4.00;99.90;;;;;;5044509;28;20123;-53
2021/01/01 13:21:54;;;;;;;70.35;36.53;;;4.00;99.90;;;;;;5063164;28;20023;-55
2021/01/01 13:24:22;;;;;;;62.97;35.90;;;4.00;99.90;;;;;;5070689;28;20476;-52
2021/01/01 13:26:48;;;;;;;73.32;35.95;;;4.00;99.90;;;;;;5065250;28;20113;-51
2021/01/01 13:29:13;;;;;;;65.43;36.33;;;4.00;99.90;;;;;;5062192;28;20465;-52
2021/01/01 13:31:40;;;;;;;62.67;36.03;;;4.00;99.90;;;;;;5065937;28;20021;-48
2021/01/01 13:34:08;;;;;;;64.03;33.85;;;4.10;99.90;;;;;;5073027;28;20028;-55
2021/01/01 13:36:34;;;;;;;63.53;34.20;;;4.10;99.90;;;;;;5074430;28;20024;-53
2021/01/01 13:39:01;;;;;;;57.13;31.75;;;4.10;99.90;;;;;;5075939;28;20717;-54
2021/01/01 13:41:27;;;;;;;59.05;34.70;;;4.10;99.90;;;;;;5074969;28;20078;-55
2021/01/01 13:43:53;;;;;;;66.07;34.92;;;4.10;99.90;;;;;;5074222;28;20111;-53
2021/01/01 13:46:21;;;;;;;60.65;34.70;;;4.10;99.90;;;;;;5075635;28;20031;-56
2021/01/01 13:48:47;;;;;;;59.53;31.87;;;4.10;99.90;;;;;;5072797;28;20161;-51
2021/01/01 13:51:12;;;;;;;62.58;33.03;;;4.10;99.90;;;;;;5074590;28;20032;-53
2021/01/01 13:53:38;;;;;;;62.03;35.03;;;4.10;99.90;;;;;;5073671;28;20022;-57
2021/01/01 13:56:04;;;;;;;57.08;33.35;;;4.10;99.90;;;;;;5072547;28;20418;-50
2021/01/01 13:58:30;;;;;;;55.95;30.67;;;4.20;99.90;;;;;;5070561;28;20055;-50
2021/01/01 14:00:55;;;;;;;53.05;28.98;;;4.30;99.90;;;;;;5070599;28;20527;-51
2021/01/01 14:03:21;;;;;;;58.72;27.10;;;4.40;99.90;;;;;;5071683;28;20395;-55
2021/01/01 14:05:50;;;;;;;49.58;25.40;;;4.50;99.90;;;;;;5072102;28;20483;-53
2021/01/01 14:08:19;;;;;;;56.00;27.80;;;4.50;99.90;;;;;;5071808;28;20032;-50
2021/01/01 14:10:48;;;;;;;54.83;27.65;;;4.50;99.90;;;;;;5069281;28;20305;-49
2021/01/01 14:13:14;;;;;;;52.63;29.08;;;4.50;99.90;;;;;;5070343;28;20024;-51
2021/01/01 14:15:40;;;;;;;59.50;28.80;;;4.50;99.90;;;;;;5071821;28;20032;-52
2021/01/01 14:18:06;;;;;;;50.20;26.75;;;4.40;99.90;;;;;;5069516;28;20579;-52
2021/01/01 14:20:34;;;;;;;44.88;24.88;;;4.30;99.90;;;;;;5071420;28;20099;-52
2021/01/01 14:23:00;;;;;;;45.45;22.60;;;4.20;99.90;;;;;;5064053;28;20028;-56
2021/01/01 14:25:26;;;;;;;41.05;22.38;;;4.20;99.90;;;;;;5050526;28;20025;-51